Time;durP1;ratioP1;P1;durP2;ratioP2;P2;SDS_P1;SDS_P2;PMS_P1;PMS_P2;Temp;Humidity;BMP_temperature;BMP_pressure;BME280_temperature;BME280_humidity;BME280_pressure;Samples;Min_cycle;Max_cycle;Signal;HPM_P1;HPM_P2
2022/10/20 00:00:36;;;;;;;17.30;9.63;;;;;;;;;;5061175;28;20013;-62
2022/10/20 00:03:01;;;;;;;14.05;9.82;;;;;;;;;;5061143;28;20060;-62
2022/10/20 00:05:27;;;;;;;12.50;8.73;;;;;;;;;;5063681;28;20031;-62
2022/10/20 00:07:52;;;;;;;9.85;7.60;;;;;;;;;;5062067;28;20036;-62
2022/10/20 00:10:18;;;;;;;11.63;8.10;;;;;;;;;;5062059;28;20420;-62
2022/10/20 00:12:43;;;;;;;9.32;7.75;;;;;;;;;;5061130;28;20078;-62
2022/10/20 00:15:08;;;;;;;6.75;6.05;;;;;;;;;;5063068;28;20044;-63
2022/10/20 00:17:34;;;;;;;8.20;6.88;;;;;;;;;;5060927;28;20086;-62
2022/10/20 00:20:00;;;;;;;7.78;6.85;;;;;;;;;;5060454;28;20021;-63
2022/10/20 00:22:25;;;;;;;11.43;7.18;;;;;;;;;;5061231;28;20059;-63
2022/10/20 00:24:51;;;;;;;9.90;8.52;;;;;;;;;;5065579;28;20467;-63
2022/10/20 00:27:16;;;;;;;11.30;7.93;;;;;;;;;;5044806;28;20560;-63
2022/10/20 00:29:41;;;;;;;11.95;8.40;;;;;;;;;;5026722;28;20055;-63
2022/10/20 00:32:07;;;;;;;9.85;7.88;;;;;;;;;;5062486;28;20055;-63
2022/10/20 00:34:32;;;;;;;9.80;8.02;;;;;;;;;;5057538;28;20024;-61
2022/10/20 00:36:58;;;;;;;9.45;7.75;;;;;;;;;;5055343;28;20029;-61
2022/10/20 00:39:23;;;;;;;11.90;9.02;;;;;;;;;;5063257;28;20044;-61
2022/10/20 00:41:48;;;;;;;14.23;10.13;;;;;;;;;;5060774;28;20040;-61
2022/10/20 00:44:32;;;;;;;11.27;9.00;;;;;;;;;;5047017;28;20021;-61
2022/10/20 00:46:58;;;;;;;11.55;8.57;;;;;;;;;;5060626;28;20024;-62
2022/10/20 00:49:24;;;;;;;12.50;8.73;;;;;;;;;;5062954;28;20368;-62
2022/10/20 00:51:52;;;;;;;10.38;7.85;;;;;;;;;;5043449;28;20051;-62
2022/10/20 00:54:20;;;;;;;11.65;8.02;;;;;;;;;;5061528;28;20404;-62
2022/10/20 00:56:47;;;;;;;9.80;7.68;;;;;;;;;;5063118;28;20429;-62
2022/10/20 00:59:15;;;;;;;12.75;8.07;;;;;;;;;;5063066;28;20017;-62
2022/10/20 01:01:41;;;;;;;11.27;7.70;;;;;;;;;;5062572;28;20028;-62
2022/10/20 01:04:07;;;;;;;8.57;7.20;;;;;;;;;;5045126;28;20020;-62
2022/10/20 01:06:33;;;;;;;5.95;5.35;;;;;;;;;;5043736;28;20159;-62
2022/10/20 01:08:58;;;;;;;6.22;5.30;;;;;;;;;;5058577;28;20040;-62
2022/10/20 01:11:24;;;;;;;5.57;5.00;;;;;;;;;;5063346;28;20029;-62
2022/10/20 01:13:49;;;;;;;6.50;4.85;;;;;;;;;;5063895;28;22596;-62
2022/10/20 01:16:28;;;;;;;5.20;4.70;;;;;;;;;;5061936;28;20109;-62
2022/10/20 01:19:00;;;;;;;7.75;4.65;;;;;;;;;;5060220;28;20052;-62
2022/10/20 01:21:41;;;;;;;7.25;5.10;;;;;;;;;;5060534;28;20024;-62
2022/10/20 01:24:25;;;;;;;5.72;5.22;;;;;;;;;;5042694;28;20467;-62
2022/10/20 01:26:51;;;;;;;5.82;4.82;;;;;;;;;;5043008;28;20040;-62
2022/10/20 01:29:27;;;;;;;6.45;4.75;;;;;;;;;;5061416;28;20020;-64
2022/10/20 01:32:11;;;;;;;6.70;5.75;;;;;;;;;;5059988;28;20444;-64
2022/10/20 01:34:39;;;;;;;5.85;5.00;;;;;;;;;;5044820;28;20090;-62
2022/10/20 01:37:16;;;;;;;6.63;4.47;;;;;;;;;;5061749;28;20021;-63
2022/10/20 01:39:48;;;;;;;7.45;5.35;;;;;;;;;;5062680;28;20028;-63
2022/10/20 01:42:17;;;;;;;6.53;5.57;;;;;;;;;;5058770;28;20044;-64
2022/10/20 01:44:44;;;;;;;5.72;4.78;;;;;;;;;;5062476;28;20009;-64
2022/10/20 01:47:10;;;;;;;6.28;5.68;;;;;;;;;;5065793;28;20024;-63
2022/10/20 01:49:36;;;;;;;6.45;4.63;;;;;;;;;;5062636;28;20024;-63
2022/10/20 01:52:01;;;;;;;5.43;4.93;;;;;;;;;;5064052;28;20028;-63
2022/10/20 01:54:27;;;;;;;4.78;4.38;;;;;;;;;;5064105;28;20071;-63
2022/10/20 01:57:07;;;;;;;5.03;4.28;;;;;;;;;;5061589;28;20053;-63
2022/10/20 01:59:41;;;;;;;4.80;4.40;;;;;;;;;;5066210;28;20028;-62
2022/10/20 02:02:18;;;;;;;6.97;4.70;;;;;;;;;;5068968;28;20031;-63
2022/10/20 02:04:59;;;;;;;10.75;6.00;;;;;;;;;;5063661;28;20033;-62
2022/10/20 02:07:26;;;;;;;6.50;4.85;;;;;;;;;;5064059;28;20032;-62
2022/10/20 02:10:00;;;;;;;5.90;5.28;;;;;;;;;;5063909;28;20021;-62
2022/10/20 02:12:30;;;;;;;8.48;5.57;;;;;;;;;;5063839;28;20029;-62
2022/10/20 02:14:56;;;;;;;5.80;5.18;;;;;;;;;;5078364;28;20082;-63
2022/10/20 02:17:21;;;;;;;8.50;5.40;;;;;;;;;;5082947;28;20035;-63
2022/10/20 02:19:48;;;;;;;12.35;7.50;;;;;;;;;;5086142;28;20395;-63
2022/10/20 02:22:15;;;;;;;10.32;7.47;;;;;;;;;;5084785;28;20052;-63
2022/10/20 02:24:41;;;;;;;11.13;7.25;;;;;;;;;;5083924;28;20016;-63
2022/10/20 02:27:09;;;;;;;10.48;7.40;;;;;;;;;;5085557;28;20041;-63
2022/10/20 02:29:38;;;;;;;7.10;5.70;;;;;;;;;;5085030;28;20477;-62
2022/10/20 02:32:04;;;;;;;8.57;6.00;;;;;;;;;;5086409;28;20067;-62
2022/10/20 02:34:29;;;;;;;7.07;5.60;;;;;;;;;;5082623;28;20040;-62
2022/10/20 02:36:57;;;;;;;5.57;5.03;;;;;;;;;;5084518;28;20087;-62
2022/10/20 02:39:22;;;;;;;4.90;4.40;;;;;;;;;;5085176;28;20013;-62
2022/10/20 02:41:48;;;;;;;4.25;3.80;;;;;;;;;;5086338;28;20040;-62
2022/10/20 02:44:13;;;;;;;4.38;4.07;;;;;;;;;;5084663;28;20039;-62
2022/10/20 02:46:39;;;;;;;5.05;4.55;;;;;;;;;;5084905;28;20115;-62
2022/10/20 02:49:04;;;;;;;6.80;4.90;;;;;;;;;;5085964;28;20325;-62
2022/10/20 02:51:31;;;;;;;8.77;6.25;;;;;;;;;;5083662;28;20032;-62
2022/10/20 02:53:56;;;;;;;14.15;7.00;;;;;;;;;;5085955;28;20020;-61
2022/10/20 02:56:21;;;;;;;10.05;6.97;;;;;;;;;;5082178;28;20468;-61
2022/10/20 02:58:47;;;;;;;10.65;7.00;;;;;;;;;;5085279;28;20024;-61
2022/10/20 03:01:12;;;;;;;10.88;7.57;;;;;;;;;;5085114;28;20090;-60
2022/10/20 03:03:38;;;;;;;8.50;6.38;;;;;;;;;;5084532;28;20055;-61
2022/10/20 03:06:07;;;;;;;10.95;6.93;;;;;;;;;;5079961;28;20024;-62
2022/10/20 03:08:33;;;;;;;11.15;6.88;;;;;;;;;;5083056;28;20040;-62
2022/10/20 03:10:58;;;;;;;9.02;6.90;;;;;;;;;;5083683;28;20025;-63
2022/10/20 03:13:23;;;;;;;9.15;6.95;;;;;;;;;;5084842;28;20026;-64
2022/10/20 03:15:49;;;;;;;8.85;6.80;;;;;;;;;;5065366;28;20537;-64
2022/10/20 03:18:14;;;;;;;6.90;6.10;;;;;;;;;;5062040;28;20020;-63
2022/10/20 03:20:40;;;;;;;8.00;6.28;;;;;;;;;;5046800;28;20452;-63
2022/10/20 03:23:05;;;;;;;7.32;6.05;;;;;;;;;;5059284;28;20620;-64
2022/10/20 03:25:31;;;;;;;6.45;5.68;;;;;;;;;;5062754;28;20044;-64
2022/10/20 03:27:56;;;;;;;9.35;5.82;;;;;;;;;;5065277;28;20484;-64
2022/10/20 03:30:21;;;;;;;6.55;5.68;;;;;;;;;;5062046;28;20468;-64
2022/10/20 03:32:47;;;;;;;7.32;5.90;;;;;;;;;;5064726;28;20036;-63
2022/10/20 03:35:12;;;;;;;6.38;5.75;;;;;;;;;;5065005;28;20092;-63
2022/10/20 03:37:38;;;;;;;8.18;6.50;;;;;;;;;;5065737;28;20563;-63
2022/10/20 03:40:03;;;;;;;9.32;6.97;;;;;;;;;;5061433;28;20417;-62
2022/10/20 03:42:29;;;;;;;9.43;6.43;;;;;;;;;;5061955;28;20048;-63
2022/10/20 03:44:54;;;;;;;7.40;6.10;;;;;;;;;;5064792;28;20103;-63
2022/10/20 03:47:19;;;;;;;8.07;6.60;;;;;;;;;;5062488;28;20021;-63
2022/10/20 03:49:45;;;;;;;7.93;7.07;;;;;;;;;;5063983;28;20082;-62
2022/10/20 03:52:10;;;;;;;8.52;6.70;;;;;;;;;;5061887;28;20029;-63
2022/10/20 03:54:36;;;;;;;9.45;7.32;;;;;;;;;;5064572;28;20017;-63
2022/10/20 03:57:01;;;;;;;8.35;7.03;;;;;;;;;;5062146;28;20052;-63
2022/10/20 03:59:27;;;;;;;9.70;6.70;;;;;;;;;;5063858;28;20020;-62
2022/10/20 04:01:52;;;;;;;10.18;6.85;;;;;;;;;;5062359;28;20033;-62
2022/10/20 04:04:17;;;;;;;5.57;5.07;;;;;;;;;;5067311;28;20026;-62
2022/10/20 04:06:43;;;;;;;5.63;5.03;;;;;;;;;;5074812;28;20047;-62
2022/10/20 04:09:10;;;;;;;4.78;4.38;;;;;;;;;;5074712;28;20024;-64
2022/10/20 04:11:36;;;;;;;4.60;4.20;;;;;;;;;;5074211;28;20033;-64
2022/10/20 04:14:01;;;;;;;5.38;4.88;;;;;;;;;;5074265;28;20131;-65
2022/10/20 04:16:27;;;;;;;4.63;4.22;;;;;;;;;;5074279;28;20020;-64
2022/10/20 04:19:00;;;;;;;6.40;5.03;;;;;;;;;;5074394;28;20490;-65
2022/10/20 04:21:25;;;;;;;7.53;5.45;;;;;;;;;;5073695;28;20028;-65
2022/10/20 04:23:52;;;;;;;7.45;6.07;;;;;;;;;;5056006;28;20482;-64
2022/10/20 04:26:17;;;;;;;8.35;6.15;;;;;;;;;;5073836;28;20035;-64
2022/10/20 04:28:45;;;;;;;11.63;7.28;;;;;;;;;;5073852;28;20024;-62
2022/10/20 04:31:11;;;;;;;11.90;6.88;;;;;;;;;;5095825;22;20052;-62
2022/10/20 04:33:36;;;;;;;8.65;6.10;;;;;;;;;;5073478;28;20032;-62
2022/10/20 04:36:06;;;;;;;7.95;6.10;;;;;;;;;;5089617;22;20044;-62
2022/10/20 04:38:34;;;;;;;6.25;5.28;;;;;;;;;;5120347;22;20056;-64
2022/10/20 04:52:19;;;;;;;8.73;5.40;;;;;;;;;;5016086;28;20512;-94
2022/10/20 04:54:47;;;;;;;7.68;5.95;;;;;;;;;;5014285;28;20492;-94
2022/10/20 04:57:12;;;;;;;9.45;6.57;;;;;;;;;;5013229;28;20117;-94
2022/10/20 04:59:38;;;;;;;10.25;6.80;;;;;;;;;;5056080;28;20089;-94
2022/10/20 05:02:03;;;;;;;14.13;7.43;;;;;;;;;;5079862;28;20458;-94
2022/10/20 05:04:28;;;;;;;11.25;6.60;;;;;;;;;;5079610;28;20098;-95
2022/10/20 05:06:54;;;;;;;12.77;7.47;;;;;;;;;;5096541;28;20023;-93
2022/10/20 05:09:19;;;;;;;7.90;5.85;;;;;;;;;;5079788;28;20056;-95
2022/10/20 05:11:45;;;;;;;8.60;5.57;;;;;;;;;;5079806;28;20015;-93
2022/10/20 05:14:15;;;;;;;7.43;4.70;;;;;;;;;;5079685;28;20039;-93
2022/10/20 05:16:45;;;;;;;7.13;4.68;;;;;;;;;;5080169;28;20042;-91
2022/10/20 05:19:16;;;;;;;11.30;7.00;;;;;;;;;;5081347;28;20023;-91
2022/10/20 05:21:53;;;;;;;16.40;9.98;;;;;;;;;;5100924;28;20077;-93
2022/10/20 05:24:24;;;;;;;21.30;11.50;;;;;;;;;;5083369;28;20035;-92
2022/10/20 05:26:59;;;;;;;13.40;7.40;;;;;;;;;;5084167;28;20032;-92
2022/10/20 05:29:32;;;;;;;16.55;10.55;;;;;;;;;;5082696;28;20084;-92
2022/10/20 05:32:01;;;;;;;33.80;17.98;;;;;;;;;;5102032;28;20051;-95
2022/10/20 05:34:27;;;;;;;30.00;18.25;;;;;;;;;;5083231;28;20034;-96
2022/10/20 05:36:53;;;;;;;30.65;17.67;;;;;;;;;;5090083;28;20095;-96
2022/10/20 05:39:18;;;;;;;27.67;15.52;;;;;;;;;;5095780;28;20071;-96
2022/10/20 05:41:43;;;;;;;22.65;13.95;;;;;;;;;;5102592;28;20162;-96
2022/10/20 05:44:10;;;;;;;24.63;13.55;;;;;;;;;;5103178;28;20035;-95
2022/10/20 05:46:40;;;;;;;17.90;12.50;;;;;;;;;;5104189;28;20066;-95
2022/10/20 05:49:06;;;;;;;17.95;11.82;;;;;;;;;;5103164;28;20559;-96
2022/10/20 05:51:33;;;;;;;16.55;11.18;;;;;;;;;;5104517;28;20567;-95
2022/10/20 05:53:58;;;;;;;17.02;9.93;;;;;;;;;;5103563;28;20073;-95
2022/10/20 05:56:24;;;;;;;14.35;7.97;;;;;;;;;;5102895;28;20539;-96
2022/10/20 05:58:50;;;;;;;11.93;7.05;;;;;;;;;;5101510;28;20030;-95
2022/10/20 06:01:18;;;;;;;5.00;3.97;;;;;;;;;;5101425;28;20058;-95
2022/10/20 06:03:56;;;;;;;5.10;4.25;;;;;;;;;;5100496;28;20067;-94
2022/10/20 06:06:23;;;;;;;4.38;3.63;;;;;;;;;;5100055;28;20118;-95
2022/10/20 06:08:49;;;;;;;4.25;3.78;;;;;;;;;;5099701;28;20027;-94
2022/10/20 06:11:15;;;;;;;3.80;3.40;;;;;;;;;;5100226;28;20146;-95
2022/10/20 06:13:40;;;;;;;4.05;3.65;;;;;;;;;;5116689;28;20032;-93
2022/10/20 06:16:13;;;;;;;5.78;4.05;;;;;;;;;;5100135;28;20070;-94
2022/10/20 06:18:39;;;;;;;5.20;4.70;;;;;;;;;;5097952;28;20032;-95
2022/10/20 06:21:06;;;;;;;6.32;5.18;;;;;;;;;;5099789;28;20165;-94
2022/10/20 06:23:31;;;;;;;5.15;4.25;;;;;;;;;;5100013;28;20032;-93
2022/10/20 06:26:00;;;;;;;8.93;4.22;;;;;;;;;;5099530;28;20024;-95
2022/10/20 06:28:27;;;;;;;5.17;4.60;;;;;;;;;;5099649;28;20126;-95
2022/10/20 06:30:53;;;;;;;7.78;4.70;;;;;;;;;;5099361;28;20018;-93
2022/10/20 06:33:18;;;;;;;4.80;4.03;;;;;;;;;;5099467;28;20031;-94
2022/10/20 06:35:43;;;;;;;5.30;4.80;;;;;;;;;;5099041;28;20050;-95
2022/10/20 06:38:09;;;;;;;5.53;4.72;;;;;;;;;;5099339;28;20401;-94
2022/10/20 06:40:34;;;;;;;29.13;19.83;;;;;;;;;;5116033;28;20048;-95
2022/10/20 06:43:00;;;;;;;33.50;21.30;;;;;;;;;;5099403;28;20032;-92
2022/10/20 06:45:25;;;;;;;30.88;21.05;;;;;;;;;;5099212;28;20027;-93
2022/10/20 06:47:50;;;;;;;12.55;10.27;;;;;;;;;;5099354;28;20541;-94
2022/10/20 06:50:16;;;;;;;8.25;7.43;;;;;;;;;;5099024;28;20023;-94
2022/10/20 06:52:41;;;;;;;6.68;6.03;;;;;;;;;;5099075;28;20028;-95
2022/10/20 06:55:07;;;;;;;6.47;5.78;;;;;;;;;;5098808;28;20028;-94
2022/10/20 06:57:32;;;;;;;7.25;5.90;;;;;;;;;;5098682;28;20077;-94
2022/10/20 06:59:58;;;;;;;11.55;8.10;;;;;;;;;;5098644;28;20026;-94
2022/10/20 07:02:23;;;;;;;11.73;7.40;;;;;;;;;;5098782;28;20072;-95
2022/10/20 07:04:48;;;;;;;10.40;7.88;;;;;;;;;;5098899;28;20023;-94
2022/10/20 07:07:14;;;;;;;8.20;6.50;;;;;;;;;;5098949;28;20023;-95
2022/10/20 07:09:39;;;;;;;7.55;6.57;;;;;;;;;;5098748;28;20026;-93
2022/10/20 07:12:05;;;;;;;9.13;6.65;;;;;;;;;;5098955;28;20481;-92
2022/10/20 07:14:30;;;;;;;5.13;4.70;;;;;;;;;;5098634;28;20515;-96
2022/10/20 07:16:55;;;;;;;4.88;4.38;;;;;;;;;;5098784;28;20028;-94
2022/10/20 07:19:21;;;;;;;6.00;4.88;;;;;;;;;;5115096;28;20023;-92
2022/10/20 07:21:46;;;;;;;6.85;5.35;;;;;;;;;;5098565;28;20020;-91
2022/10/20 07:24:12;;;;;;;7.35;4.72;;;;;;;;;;5098236;28;20023;-92
2022/10/20 07:26:38;;;;;;;5.10;4.65;;;;;;;;;;5115498;28;20076;-94
2022/10/20 07:29:04;;;;;;;4.55;4.25;;;;;;;;;;5115886;28;20216;-94
2022/10/20 07:31:31;;;;;;;6.03;4.80;;;;;;;;;;5098321;28;20545;-92
2022/10/20 07:34:00;;;;;;;4.70;4.00;;;;;;;;;;5114898;28;20027;-93
2022/10/20 07:36:27;;;;;;;5.45;4.53;;;;;;;;;;5098937;28;20031;-92
2022/10/20 07:38:54;;;;;;;5.28;4.55;;;;;;;;;;5098417;28;20035;-91
2022/10/20 07:41:19;;;;;;;4.57;4.15;;;;;;;;;;5097764;28;20055;-92
2022/10/20 07:43:45;;;;;;;5.32;4.82;;;;;;;;;;5115312;28;20057;-93
2022/10/20 07:46:11;;;;;;;5.63;4.63;;;;;;;;;;5098037;28;20020;-91
2022/10/20 07:48:37;;;;;;;3.95;3.75;;;;;;;;;;5098083;28;20016;-91
2022/10/20 07:51:12;;;;;;;3.92;3.30;;;;;;;;;;5098120;28;20023;-92
2022/10/20 07:53:38;;;;;;;3.55;3.20;;;;;;;;;;5098130;28;20026;-93
2022/10/20 07:56:03;;;;;;;3.58;3.28;;;;;;;;;;5097765;28;20024;-91
2022/10/20 07:58:29;;;;;;;3.67;3.38;;;;;;;;;;5098112;28;20019;-92
2022/10/20 08:00:54;;;;;;;3.95;3.45;;;;;;;;;;5098323;28;20065;-93
2022/10/20 08:03:19;;;;;;;5.85;4.45;;;;;;;;;;5097946;28;20031;-91
2022/10/20 08:05:45;;;;;;;6.00;3.65;;;;;;;;;;5097979;28;20027;-93
2022/10/20 08:08:10;;;;;;;4.07;3.67;;;;;;;;;;5097713;28;20077;-91
2022/10/20 08:10:36;;;;;;;2.90;2.70;;;;;;;;;;5114425;28;20019;-92
2022/10/20 08:13:01;;;;;;;3.20;2.88;;;;;;;;;;5097554;28;20085;-92
2022/10/20 08:15:26;;;;;;;3.33;2.95;;;;;;;;;;5097422;28;20355;-93
2022/10/20 08:17:52;;;;;;;9.95;8.98;;;;;;;;;;5097291;28;20027;-91
2022/10/20 08:20:17;;;;;;;3.20;2.47;;;;;;;;;;5097357;28;20016;-93
2022/10/20 08:22:42;;;;;;;2.50;2.30;;;;;;;;;;5097406;28;20035;-93
2022/10/20 08:25:12;;;;;;;2.50;2.22;;;;;;;;;;5097390;28;20599;-92
2022/10/20 08:27:37;;;;;;;5.53;2.20;;;;;;;;;;5097419;28;20492;-94
2022/10/20 08:30:03;;;;;;;2.95;2.20;;;;;;;;;;5097324;28;20015;-92
2022/10/20 08:32:28;;;;;;;3.88;2.10;;;;;;;;;;5096897;28;20028;-91
2022/10/20 08:34:54;;;;;;;4.50;2.67;;;;;;;;;;5096871;28;20102;-92
2022/10/20 08:37:19;;;;;;;4.20;2.75;;;;;;;;;;5097133;28;20049;-93
2022/10/20 08:39:44;;;;;;;4.40;2.53;;;;;;;;;;5096695;28;20085;-91
2022/10/20 08:42:10;;;;;;;3.63;2.70;;;;;;;;;;5097099;28;20083;-93
2022/10/20 08:44:37;;;;;;;5.57;3.13;;;;;;;;;;5097272;28;20126;-92
2022/10/20 08:47:03;;;;;;;4.03;2.88;;;;;;;;;;5096938;28;20035;-94
2022/10/20 08:49:31;;;;;;;6.10;3.28;;;;;;;;;;5097318;28;20483;-93
2022/10/20 08:51:57;;;;;;;4.15;2.58;;;;;;;;;;5097134;28;20058;-95
2022/10/20 08:54:22;;;;;;;7.40;3.10;;;;;;;;;;5096302;28;20020;-93
2022/10/20 08:56:48;;;;;;;4.32;2.92;;;;;;;;;;5096752;28;20035;-94
2022/10/20 08:59:33;;;;;;;8.02;2.85;;;;;;;;;;5097266;28;20077;-94
2022/10/20 09:01:59;;;;;;;3.83;2.20;;;;;;;;;;5096004;28;20036;-93
2022/10/20 09:04:36;;;;;;;5.13;2.35;;;;;;;;;;5096952;28;20020;-93
2022/10/20 09:07:04;;;;;;;3.08;2.25;;;;;;;;;;5097325;28;20088;-93
2022/10/20 09:09:30;;;;;;;5.78;2.58;;;;;;;;;;5097090;28;20484;-94
2022/10/20 09:12:02;;;;;;;5.60;2.20;;;;;;;;;;5096728;28;20063;-95
2022/10/20 09:14:28;;;;;;;3.67;1.98;;;;;;;;;;5096479;28;20482;-93
2022/10/20 09:16:54;;;;;;;2.90;1.60;;;;;;;;;;5097032;28;20023;-93
2022/10/20 09:19:21;;;;;;;7.25;1.92;;;;;;;;;;5096949;28;20023;-92
2022/10/20 09:21:49;;;;;;;2.22;1.77;;;;;;;;;;5097274;28;20042;-94
2022/10/20 09:24:15;;;;;;;2.17;2.05;;;;;;;;;;5096912;28;20031;-93
2022/10/20 09:26:45;;;;;;;6.90;2.10;;;;;;;;;;5096869;28;20506;-95
2022/10/20 09:29:10;;;;;;;6.95;1.65;;;;;;;;;;5097072;28;20537;-94
2022/10/20 09:31:39;;;;;;;6.85;1.95;;;;;;;;;;5096794;28;20106;-93
2022/10/20 09:34:21;;;;;;;6.85;2.05;;;;;;;;;;5096741;28;20030;-93
2022/10/20 09:36:47;;;;;;;6.10;2.20;;;;;;;;;;5096688;28;20032;-94
2022/10/20 09:39:21;;;;;;;2.85;2.13;;;;;;;;;;5096695;28;20062;-94
2022/10/20 09:41:48;;;;;;;2.63;2.25;;;;;;;;;;5096949;28;20023;-93
2022/10/20 09:44:14;;;;;;;2.55;1.98;;;;;;;;;;5096719;28;20092;-93
2022/10/20 09:46:45;;;;;;;2.33;2.13;;;;;;;;;;5097250;28;20046;-93
2022/10/20 09:49:10;;;;;;;;;;;;;;;;;;5097553;28;20054;-93
2022/10/20 09:51:37;;;;;;;1.20;1.10;;;;;;;;;;5097903;28;19904;-93
2022/10/20 09:54:04;;;;;;;2.38;1.60;;;;;;;;;;5097880;28;20285;-92
2022/10/20 09:56:29;;;;;;;2.75;1.70;;;;;;;;;;5097508;28;20020;-94
2022/10/20 09:58:57;;;;;;;5.25;1.95;;;;;;;;;;5097785;28;20058;-95
2022/10/20 10:01:22;;;;;;;3.72;1.15;;;;;;;;;;5098443;28;20097;-94
2022/10/20 10:03:50;;;;;;;1.67;1.10;;;;;;;;;;5098640;28;20039;-93
2022/10/20 10:06:24;;;;;;;1.73;1.00;;;;;;;;;;5100283;28;20078;-93
2022/10/20 10:08:50;;;;;;;1.77;1.10;;;;;;;;;;5101704;28;20028;-94
2022/10/20 10:11:16;;;;;;;0.90;0.80;;;;;;;;;;5101829;28;20026;-95
2022/10/20 10:13:44;;;;;;;1.92;0.90;;;;;;;;;;5102796;28;20034;-93
2022/10/20 10:16:13;;;;;;;2.25;1.00;;;;;;;;;;5086295;28;20493;-94
2022/10/20 10:18:38;;;;;;;1.88;0.70;;;;;;;;;;5103966;28;20052;-94
2022/10/20 10:21:06;;;;;;;0.65;0.65;;;;;;;;;;5121629;28;20035;-94
2022/10/20 10:23:39;;;;;;;1.67;1.05;;;;;;;;;;5122733;28;20039;-94
2022/10/20 10:26:25;;;;;;;2.15;0.90;;;;;;;;;;5105721;28;20031;-94
2022/10/20 10:28:56;;;;;;;4.22;1.30;;;;;;;;;;5105762;28;20027;-94
2022/10/20 10:31:23;;;;;;;2.47;0.80;;;;;;;;;;5106596;28;20030;-94
2022/10/20 10:33:49;;;;;;;1.88;0.90;;;;;;;;;;5106641;28;20027;-94
2022/10/20 10:36:18;;;;;;;0.98;0.88;;;;;;;;;;5107368;28;20087;-95
2022/10/20 10:38:44;;;;;;;1.75;0.75;;;;;;;;;;5108133;28;20024;-94
2022/10/20 10:41:30;;;;;;;0.90;0.63;;;;;;;;;;5074717;28;20047;-94
2022/10/20 10:44:09;;;;;;;0.77;0.77;;;;;;;;;;5072938;28;20031;-94
2022/10/20 10:46:42;;;;;;;0.80;0.57;;;;;;;;;;5088270;28;20036;-95
2022/10/20 10:49:27;;;;;;;1.50;0.80;;;;;;;;;;5071388;28;20478;-95
2022/10/20 10:52:25;;;;;;;3.30;1.52;;;;;;;;;;5104139;28;20504;-94
2022/10/20 10:55:12;;;;;;;3.10;1.52;;;;;;;;;;5086223;28;20032;-95
2022/10/20 10:57:56;;;;;;;0.98;0.90;;;;;;;;;;5083613;28;20039;-95
2022/10/20 11:00:41;;;;;;;0.65;0.60;;;;;;;;;;5082987;28;20046;-95
2022/10/20 11:03:27;;;;;;;0.80;0.80;;;;;;;;;;5080256;28;20036;-93
2022/10/20 11:05:56;;;;;;;3.20;1.23;;;;;;;;;;5096680;28;20034;-96
2022/10/20 11:08:42;;;;;;;1.60;1.45;;;;;;;;;;5091497;28;20024;-95
2022/10/20 11:11:30;;;;;;;23.65;9.40;;;;;;;;;;5093325;28;20127;-94
2022/10/20 11:14:17;;;;;;;4.32;1.75;;;;;;;;;;5094105;28;20060;-94
2022/10/20 11:17:12;;;;;;;1.10;0.95;;;;;;;;;;5093396;28;20075;-94
2022/10/20 11:19:41;;;;;;;1.42;1.00;;;;;;;;;;5093865;28;20027;-93
2022/10/20 11:22:26;;;;;;;2.65;1.23;;;;;;;;;;5111947;28;20024;-94
2022/10/20 11:25:04;;;;;;;1.05;0.70;;;;;;;;;;5078771;28;20024;-94
2022/10/20 11:27:38;;;;;;;0.80;0.80;;;;;;;;;;5095915;28;20028;-94
2022/10/20 11:30:15;;;;;;;1.92;0.90;;;;;;;;;;5094028;28;20032;-94
2022/10/20 11:33:02;;;;;;;1.48;1.23;;;;;;;;;;5078619;28;20044;-94
2022/10/20 11:36:09;;;;;;;1.17;1.08;;;;;;;;;;5096706;28;20040;-94
2022/10/20 11:38:50;;;;;;;1.15;1.05;;;;;;;;;;5094436;28;20032;-94
2022/10/20 11:41:59;;;;;;;2.17;1.00;;;;;;;;;;5132640;28;20067;-94
2022/10/20 11:45:14;;;;;;;2.92;1.10;;;;;;;;;;5125164;28;20028;-95
2022/10/20 11:47:47;;;;;;;2.67;1.00;;;;;;;;;;5133239;28;20131;-94
2022/10/20 11:50:16;;;;;;;1.25;0.95;;;;;;;;;;5117642;28;20057;-94
2022/10/20 11:53:08;;;;;;;1.25;1.13;;;;;;;;;;5118607;28;20019;-94
2022/10/20 11:55:59;;;;;;;1.40;1.20;;;;;;;;;;5112065;28;20048;-94
2022/10/20 11:58:49;;;;;;;1.55;1.10;;;;;;;;;;5010068;28;20081;-95
2022/10/20 12:01:36;;;;;;;0.95;0.80;;;;;;;;;;5109797;28;20035;-94
2022/10/20 12:04:07;;;;;;;1.10;1.00;;;;;;;;;;5091860;28;20039;-94
2022/10/20 12:07:00;;;;;;;1.20;0.90;;;;;;;;;;5093246;28;20020;-94
2022/10/20 12:09:51;;;;;;;0.90;0.80;;;;;;;;;;5110046;28;20036;-94
2022/10/20 12:12:18;;;;;;;0.90;0.90;;;;;;;;;;5093320;28;20028;-94
2022/10/20 12:14:50;;;;;;;1.05;0.90;;;;;;;;;;5091683;28;20036;-94
2022/10/20 12:17:47;;;;;;;1.30;1.10;;;;;;;;;;5091974;28;20036;-93
2022/10/20 12:20:29;;;;;;;0.73;0.70;;;;;;;;;;5092227;28;20048;-94
2022/10/20 12:23:01;;;;;;;0.90;0.90;;;;;;;;;;5110148;28;20028;-94
2022/10/20 12:25:35;;;;;;;1.38;0.80;;;;;;;;;;5093607;28;20101;-93
2022/10/20 12:31:22;;;;;;;1.27;1.08;;;;;;;;;;5013440;28;20148;-95
2022/10/20 12:34:00;;;;;;;1.95;1.00;;;;;;;;;;5029730;28;20042;-94
2022/10/20 12:36:39;;;;;;;0.88;0.73;;;;;;;;;;5012984;28;20140;-95
2022/10/20 12:39:19;;;;;;;0.82;0.80;;;;;;;;;;5047005;28;20053;-94
2022/10/20 12:42:07;;;;;;;0.98;0.90;;;;;;;;;;5130419;28;20066;-95
2022/10/20 12:45:16;;;;;;;0.80;0.80;;;;;;;;;;5119690;28;20038;-96
2022/10/20 12:48:06;;;;;;;;;;;;;;;;;;;;;
2022/10/20 12:51:01;;;;;;;1.95;0.70;;;;;;;;;;5116452;28;20035;-94
2022/10/20 12:53:29;;;;;;;1.00;0.80;;;;;;;;;;5113438;28;20099;-94
2022/10/20 12:55:59;;;;;;;1.50;1.30;;;;;;;;;;5074611;28;20040;-95
2022/10/20 13:18:59;;;;;;;1.08;0.98;;;;;;;;;;5050294;28;20465;-65
2022/10/20 13:21:27;;;;;;;2.00;1.48;;;;;;;;;;5052110;28;20025;-65
2022/10/20 13:23:55;;;;;;;2.05;1.60;;;;;;;;;;5051757;28;20123;-65
2022/10/20 13:26:25;;;;;;;2.28;1.65;;;;;;;;;;5052074;28;20025;-65
2022/10/20 13:28:52;;;;;;;1.60;1.50;;;;;;;;;;5052344;28;20116;-65
2022/10/20 13:31:29;;;;;;;2.58;1.90;;;;;;;;;;5052184;28;20017;-65
2022/10/20 13:34:10;;;;;;;2.53;1.70;;;;;;;;;;5033972;28;20465;-65
2022/10/20 13:36:35;;;;;;;3.97;3.10;;;;;;;;;;5051665;28;20068;-65
2022/10/20 13:39:04;;;;;;;1.40;1.30;;;;;;;;;;5050772;28;20068;-65
2022/10/20 13:41:32;;;;;;;1.67;1.58;;;;;;;;;;5037578;28;20029;-65
2022/10/20 13:44:01;;;;;;;2.92;1.40;;;;;;;;;;5056221;28;20056;-65
2022/10/20 13:46:35;;;;;;;2.17;1.70;;;;;;;;;;5055781;28;20036;-65
2022/10/20 13:49:20;;;;;;;2.10;1.90;;;;;;;;;;5055850;28;20029;-65
2022/10/20 13:51:51;;;;;;;2.25;1.92;;;;;;;;;;5055302;28;20024;-65
2022/10/20 13:54:21;;;;;;;1.70;1.58;;;;;;;;;;5055565;28;20029;-65
2022/10/20 13:56:47;;;;;;;3.83;2.00;;;;;;;;;;5055591;28;20027;-65
2022/10/20 13:59:12;;;;;;;2.05;1.83;;;;;;;;;;5055479;28;20096;-65
2022/10/20 14:01:38;;;;;;;2.20;1.60;;;;;;;;;;5055536;28;20033;-65
2022/10/20 14:04:22;;;;;;;1.92;1.83;;;;;;;;;;5055144;28;20017;-65
2022/10/20 14:06:47;;;;;;;2.20;2.00;;;;;;;;;;5054200;28;20388;-65
2022/10/20 14:09:17;;;;;;;1.73;1.63;;;;;;;;;;5055529;28;20027;-65
2022/10/20 14:11:44;;;;;;;2.22;1.70;;;;;;;;;;5055570;28;20476;-65
2022/10/20 14:14:14;;;;;;;2.20;2.00;;;;;;;;;;5037914;28;20024;-65
2022/10/20 14:16:41;;;;;;;;;;;;;;;;;;5055402;28;20400;-65
2022/10/20 14:19:09;;;;;;;1.77;1.67;;;;;;;;;;5054501;28;20332;-65
2022/10/20 14:21:43;;;;;;;1.88;1.77;;;;;;;;;;5053614;28;20025;-65
2022/10/20 14:24:29;;;;;;;1.88;1.77;;;;;;;;;;5053953;28;20033;-65
2022/10/20 14:26:55;;;;;;;3.25;2.10;;;;;;;;;;5053916;28;20035;-65
2022/10/20 14:29:22;;;;;;;5.85;3.80;;;;;;;;;;5054342;28;20074;-65
2022/10/20 14:31:48;;;;;;;1.80;1.50;;;;;;;;;;5036524;28;20023;-65
2022/10/20 14:34:16;;;;;;;2.85;2.20;;;;;;;;;;5054491;28;20031;-65
2022/10/20 14:36:42;;;;;;;8.05;5.22;;;;;;;;;;5054814;28;20057;-65
2022/10/20 14:39:18;;;;;;;2.97;2.63;;;;;;;;;;5053716;28;20053;-66
2022/10/20 14:41:45;;;;;;;2.80;2.45;;;;;;;;;;5053499;28;20025;-65
2022/10/20 14:44:17;;;;;;;2.05;1.52;;;;;;;;;;5054632;28;20095;-65
2022/10/20 14:46:45;;;;;;;5.00;2.20;;;;;;;;;;5053312;28;20400;-65
2022/10/20 14:49:15;;;;;;;4.22;2.78;;;;;;;;;;5054598;28;20024;-65
2022/10/20 14:51:46;;;;;;;10.80;8.15;;;;;;;;;;5052179;28;20032;-66
2022/10/20 14:54:23;;;;;;;9.23;8.20;;;;;;;;;;5054465;28;20035;-65
2022/10/20 14:56:52;;;;;;;5.97;3.53;;;;;;;;;;5036527;28;20464;-65
2022/10/20 14:59:22;;;;;;;5.60;2.78;;;;;;;;;;5054312;28;20389;-65
2022/10/20 15:02:01;;;;;;;10.98;3.20;;;;;;;;;;5053350;28;20099;-65
2022/10/20 15:04:27;;;;;;;9.48;5.75;;;;;;;;;;5036556;28;20451;-66
2022/10/20 15:07:06;;;;;;;7.00;3.53;;;;;;;;;;5054385;28;20447;-66
2022/10/20 15:09:40;;;;;;;5.20;3.97;;;;;;;;;;5053963;28;20112;-66
2022/10/20 15:12:17;;;;;;;4.60;3.90;;;;;;;;;;5052214;28;20112;-66
2022/10/20 15:14:44;;;;;;;2.88;2.38;;;;;;;;;;5054516;28;20041;-65
2022/10/20 15:17:28;;;;;;;3.50;2.40;;;;;;;;;;5050163;28;20045;-66
2022/10/20 15:19:54;;;;;;;4.30;3.28;;;;;;;;;;5034648;28;20026;-66
2022/10/20 15:22:19;;;;;;;24.00;15.48;;;;;;;;;;5034339;28;20028;-66
2022/10/20 15:24:45;;;;;;;101.32;56.25;;;;;;;;;;5034932;28;20108;-66
2022/10/20 15:27:14;;;;;;;21.75;16.35;;;;;;;;;;5034876;28;20028;-66
2022/10/20 15:29:50;;;;;;;12.43;9.48;;;;;;;;;;5034829;28;20037;-66
2022/10/20 15:32:16;;;;;;;13.50;9.82;;;;;;;;;;5050003;28;20457;-65